sensor_id;sensor_type;location;lat;lon;timestamp;pressure;altitude;pressure_sealevel;temperature;humidity
63739;BME280;68816;45.558;10.070;2024-02-23T00:00:13;98519.03;;;10.49;100.00
63739;BME280;68816;45.558;10.070;2024-02-23T00:02:39;98516.28;;;10.49;100.00
63739;BME280;68816;45.558;10.070;2024-02-23T00:05:04;98510.47;;;10.50;100.00
63739;BME280;68816;45.558;10.070;2024-02-23T00:07:30;98510.78;;;10.54;100.00
63739;BME280;68816;45.558;10.070;2024-02-23T00:09:55;98498.59;;;10.50;100.00
63739;BME280;68816;45.558;10.070;2024-02-23T00:12:21;98493.06;;;10.50;100.00
63739;BME280;68816;45.558;10.070;2024-02-23T00:14:46;98485.34;;;10.52;100.00
63739;BME280;68816;45.558;10.070;2024-02-23T00:17:12;98490.88;;;10.52;100.00
63739;BME280;68816;45.558;10.070;2024-02-23T00:19:37;98480.66;;;10.57;100.00
63739;BME280;68816;45.558;10.070;2024-02-23T00:22:03;98489.19;;;10.51;100.00
63739;BME280;68816;45.558;10.070;2024-02-23T00:24:29;98486.69;;;10.44;100.00
63739;BME280;68816;45.558;10.070;2024-02-23T00:26:54;98486.44;;;10.46;100.00
63739;BME280;68816;45.558;10.070;2024-02-23T00:29:20;98482.56;;;10.42;100.00
63739;BME280;68816;45.558;10.070;2024-02-23T00:31:46;98466.53;;;10.49;100.00
63739;BME280;68816;45.558;10.070;2024-02-23T00:34:12;98478.41;;;10.39;100.00
63739;BME280;68816;45.558;10.070;2024-02-23T00:36:39;98467.91;;;10.41;100.00
63739;BME280;68816;45.558;10.070;2024-02-23T00:39:06;98451.63;;;10.50;100.00
63739;BME280;68816;45.558;10.070;2024-02-23T00:41:35;98456.59;;;10.48;100.00
63739;BME280;68816;45.558;10.070;2024-02-23T00:44:02;98456.56;;;10.43;100.00
63739;BME280;68816;45.558;10.070;2024-02-23T00:46:28;98446.66;;;10.42;100.00
63739;BME280;68816;45.558;10.070;2024-02-23T00:48:53;98443.31;;;10.40;100.00
63739;BME280;68816;45.558;10.070;2024-02-23T00:51:19;98442.75;;;10.38;100.00
63739;BME280;68816;45.558;10.070;2024-02-23T00:53:45;98431.44;;;10.39;100.00
63739;BME280;68816;45.558;10.070;2024-02-23T00:56:10;98429.50;;;10.45;100.00
63739;BME280;68816;45.558;10.070;2024-02-23T00:58:36;98423.72;;;10.36;100.00
63739;BME280;68816;45.558;10.070;2024-02-23T01:01:01;98412.91;;;10.29;100.00
63739;BME280;68816;45.558;10.070;2024-02-23T01:03:27;98414.59;;;10.31;100.00
63739;BME280;68816;45.558;10.070;2024-02-23T01:05:52;98402.97;;;10.39;100.00
63739;BME280;68816;45.558;10.070;2024-02-23T01:08:18;98403.50;;;10.20;100.00
63739;BME280;68816;45.558;10.070;2024-02-23T01:10:44;98400.19;;;10.23;100.00
63739;BME280;68816;45.558;10.070;2024-02-23T01:13:09;98385.81;;;10.21;100.00
63739;BME280;68816;45.558;10.070;2024-02-23T01:15:35;98374.75;;;10.06;100.00
63739;BME280;68816;45.558;10.070;2024-02-23T01:18:00;98373.66;;;10.12;100.00
63739;BME280;68816;45.558;10.070;2024-02-23T01:20:26;98368.38;;;10.11;100.00
63739;BME280;68816;45.558;10.070;2024-02-23T01:22:52;98360.69;;;10.23;100.00
63739;BME280;68816;45.558;10.070;2024-02-23T01:25:17;98352.16;;;10.24;100.00
63739;BME280;68816;45.558;10.070;2024-02-23T01:27:43;98347.72;;;10.28;100.00
63739;BME280;68816;45.558;10.070;2024-02-23T01:30:10;98345.22;;;10.27;100.00
63739;BME280;68816;45.558;10.070;2024-02-23T01:32:35;98338.31;;;10.19;100.00
63739;BME280;68816;45.558;10.070;2024-02-23T01:35:04;98332.22;;;10.12;100.00
63739;BME280;68816;45.558;10.070;2024-02-23T01:37:29;98325.06;;;10.21;100.00
63739;BME280;68816;45.558;10.070;2024-02-23T01:39:55;98319.53;;;10.21;100.00
63739;BME280;68816;45.558;10.070;2024-02-23T01:42:21;98309.06;;;10.23;100.00
63739;BME280;68816;45.558;10.070;2024-02-23T01:44:47;98304.88;;;10.26;100.00
63739;BME280;68816;45.558;10.070;2024-02-23T01:47:12;98307.91;;;10.19;100.00
63739;BME280;68816;45.558;10.070;2024-02-23T01:49:38;98286.38;;;10.21;100.00
63739;BME280;68816;45.558;10.070;2024-02-23T01:52:04;98270.38;;;10.23;100.00
63739;BME280;68816;45.558;10.070;2024-02-23T01:54:30;98283.34;;;10.28;100.00
63739;BME280;68816;45.558;10.070;2024-02-23T01:56:57;98267.63;;;10.23;100.00
63739;BME280;68816;45.558;10.070;2024-02-23T01:59:25;98267.03;;;10.26;100.00
63739;BME280;68816;45.558;10.070;2024-02-23T02:01:50;98268.72;;;10.27;100.00
63739;BME280;68816;45.558;10.070;2024-02-23T02:04:16;98270.38;;;10.28;100.00
63739;BME280;68816;45.558;10.070;2024-02-23T02:06:42;98258.75;;;10.26;100.00
63739;BME280;68816;45.558;10.070;2024-02-23T02:09:08;98258.75;;;10.32;100.00
63739;BME280;68816;45.558;10.070;2024-02-23T02:11:33;98258.50;;;10.28;100.00
63739;BME280;68816;45.558;10.070;2024-02-23T02:13:59;98247.19;;;10.24;100.00
63739;BME280;68816;45.558;10.070;2024-02-23T02:16:25;98239.44;;;10.16;100.00
63739;BME280;68816;45.558;10.070;2024-02-23T02:18:50;98239.16;;;10.28;100.00
63739;BME280;68816;45.558;10.070;2024-02-23T02:21:16;98221.75;;;10.27;100.00
63739;BME280;68816;45.558;10.070;2024-02-23T02:23:42;98217.03;;;10.33;100.00
63739;BME280;68816;45.558;10.070;2024-02-23T02:26:07;98199.09;;;10.31;100.00
63739;BME280;68816;45.558;10.070;2024-02-23T02:28:33;98201.84;;;10.36;100.00
63739;BME280;68816;45.558;10.070;2024-02-23T02:30:59;98188.59;;;10.33;100.00
63739;BME280;68816;45.558;10.070;2024-02-23T02:33:25;98186.38;;;10.35;100.00
63739;BME280;68816;45.558;10.070;2024-02-23T02:35:50;98180.84;;;10.35;100.00
63739;BME280;68816;45.558;10.070;2024-02-23T02:38:16;98179.47;;;10.32;100.00
63739;BME280;68816;45.558;10.070;2024-02-23T02:40:41;98180.84;;;10.35;100.00
63739;BME280;68816;45.558;10.070;2024-02-23T02:43:07;98178.66;;;10.37;100.00
63739;BME280;68816;45.558;10.070;2024-02-23T02:45:32;98171.16;;;10.32;100.00
63739;BME280;68816;45.558;10.070;2024-02-23T02:48:00;98175.59;;;10.33;100.00
63739;BME280;68816;45.558;10.070;2024-02-23T02:50:26;98165.63;;;10.37;100.00
63739;BME280;68816;45.558;10.070;2024-02-23T02:52:52;98165.38;;;10.34;100.00
63739;BME280;68816;45.558;10.070;2024-02-23T02:55:17;98157.66;;;10.36;100.00
63739;BME280;68816;45.558;10.070;2024-02-23T02:57:44;98157.34;;;10.37;100.00
63739;BME280;68816;45.558;10.070;2024-02-23T03:00:10;98157.63;;;10.41;100.00
63739;BME280;68816;45.558;10.070;2024-02-23T03:02:36;98155.66;;;10.46;100.00
63739;BME280;68816;45.558;10.070;2024-02-23T03:05:01;98156.53;;;10.42;100.00
63739;BME280;68816;45.558;10.070;2024-02-23T03:07:27;98156.78;;;10.45;100.00
63739;BME280;68816;45.558;10.070;2024-02-23T03:09:52;98153.19;;;10.40;100.00
63739;BME280;68816;45.558;10.070;2024-02-23T03:12:19;98160.38;;;10.41;100.00
63739;BME280;68816;45.558;10.070;2024-02-23T03:14:44;98152.63;;;10.43;100.00
63739;BME280;68816;45.558;10.070;2024-02-23T03:17:10;98144.91;;;10.40;100.00
63739;BME280;68816;45.558;10.070;2024-02-23T03:19:36;98138.25;;;10.46;100.00
63739;BME280;68816;45.558;10.070;2024-02-23T03:22:02;98130.53;;;10.48;100.00
63739;BME280;68816;45.558;10.070;2024-02-23T03:24:27;98127.50;;;10.39;100.00
63739;BME280;68816;45.558;10.070;2024-02-23T03:26:53;98120.06;;;10.35;100.00
63739;BME280;68816;45.558;10.070;2024-02-23T03:29:19;98112.59;;;10.40;100.00
63739;BME280;68816;45.558;10.070;2024-02-23T03:31:45;98104.56;;;10.39;100.00
63739;BME280;68816;45.558;10.070;2024-02-23T03:34:11;98107.34;;;10.39;100.00
63739;BME280;68816;45.558;10.070;2024-02-23T03:36:38;98105.97;;;10.36;100.00
63739;BME280;68816;45.558;10.070;2024-02-23T03:39:03;98106.81;;;10.37;100.00
63739;BME280;68816;45.558;10.070;2024-02-23T03:41:29;98105.69;;;10.38;100.00
63739;BME280;68816;45.558;10.070;2024-02-23T03:43:54;98094.94;;;10.36;100.00
63739;BME280;68816;45.558;10.070;2024-02-23T03:46:20;98087.16;;;10.38;100.00
63739;BME280;68816;45.558;10.070;2024-02-23T03:48:46;98085.78;;;10.41;100.00
63739;BME280;68816;45.558;10.070;2024-02-23T03:51:12;98083.84;;;10.41;100.00
63739;BME280;68816;45.558;10.070;2024-02-23T03:53:37;98077.53;;;10.36;100.00
63739;BME280;68816;45.558;10.070;2024-02-23T03:56:03;98073.66;;;10.37;100.00
63739;BME280;68816;45.558;10.070;2024-02-23T03:58:29;98080.81;;;10.38;100.00
63739;BME280;68816;45.558;10.070;2024-02-23T04:00:54;98083.31;;;10.39;100.00
63739;BME280;68816;45.558;10.070;2024-02-23T04:03:20;98092.16;;;10.41;100.00
63739;BME280;68816;45.558;10.070;2024-02-23T04:05:45;98093.50;;;10.44;100.00
63739;BME280;68816;45.558;10.070;2024-02-23T04:08:11;98088.00;;;10.39;100.00
63739;BME280;68816;45.558;10.070;2024-02-23T04:10:36;98091.84;;;10.43;100.00
63739;BME280;68816;45.558;10.070;2024-02-23T04:13:02;98093.53;;;10.39;100.00
63739;BME280;68816;45.558;10.070;2024-02-23T04:15:28;98099.63;;;10.36;100.00
63739;BME280;68816;45.558;10.070;2024-02-23T04:17:53;98106.81;;;10.37;100.00
63739;BME280;68816;45.558;10.070;2024-02-23T04:20:19;98108.44;;;10.38;100.00
63739;BME280;68816;45.558;10.070;2024-02-23T04:22:44;98113.41;;;10.41;100.00
63739;BME280;68816;45.558;10.070;2024-02-23T04:25:10;98120.63;;;10.37;100.00
63739;BME280;68816;45.558;10.070;2024-02-23T04:27:35;98126.69;;;10.34;100.00
63739;BME280;68816;45.558;10.070;2024-02-23T04:30:02;98114.25;;;10.41;100.00
63739;BME280;68816;45.558;10.070;2024-02-23T04:32:27;98102.66;;;10.39;100.00
63739;BME280;68816;45.558;10.070;2024-02-23T04:34:53;98109.25;;;10.43;100.00
63739;BME280;68816;45.558;10.070;2024-02-23T04:37:18;98105.97;;;10.36;100.00
63739;BME280;68816;45.558;10.070;2024-02-23T04:39:44;98110.38;;;10.37;100.00
63739;BME280;68816;45.558;10.070;2024-02-23T04:42:10;98119.78;;;10.31;100.00
63739;BME280;68816;45.558;10.070;2024-02-23T04:44:35;98123.41;;;10.21;100.00
63739;BME280;68816;45.558;10.070;2024-02-23T04:47:01;98123.72;;;10.05;100.00
63739;BME280;68816;45.558;10.070;2024-02-23T04:49:27;98123.72;;;10.05;100.00
63739;BME280;68816;45.558;10.070;2024-02-23T04:51:54;98113.81;;;9.94;100.00
63739;BME280;68816;45.558;10.070;2024-02-23T04:54:19;98115.66;;;10.13;100.00
63739;BME280;68816;45.558;10.070;2024-02-23T04:56:45;98116.25;;;10.10;100.00
63739;BME280;68816;45.558;10.070;2024-02-23T04:59:10;98113.47;;;10.15;100.00
63739;BME280;68816;45.558;10.070;2024-02-23T05:01:36;98110.19;;;10.18;100.00
63739;BME280;68816;45.558;10.070;2024-02-23T05:04:03;98106.59;;;10.18;100.00
63739;BME280;68816;45.558;10.070;2024-02-23T05:06:29;98102.69;;;10.14;100.00
63739;BME280;68816;45.558;10.070;2024-02-23T05:08:54;98096.66;;;10.17;100.00
63739;BME280;68816;45.558;10.070;2024-02-23T05:11:20;98093.88;;;10.12;100.00
63739;BME280;68816;45.558;10.070;2024-02-23T05:13:45;98098.81;;;10.15;100.00
63739;BME280;68816;45.558;10.070;2024-02-23T05:16:11;98094.97;;;10.11;100.00
63739;BME280;68816;45.558;10.070;2024-02-23T05:18:38;98093.06;;;10.11;100.00
63739;BME280;68816;45.558;10.070;2024-02-23T05:21:04;98082.59;;;9.98;100.00
63739;BME280;68816;45.558;10.070;2024-02-23T05:23:30;98079.78;;;10.13;100.00
63739;BME280;68816;45.558;10.070;2024-02-23T05:25:55;98078.97;;;10.13;100.00
63739;BME280;68816;45.558;10.070;2024-02-23T05:28:21;98079.78;;;10.08;100.00
63739;BME280;68816;45.558;10.070;2024-02-23T05:30:46;98074.84;;;10.05;100.00
63739;BME280;68816;45.558;10.070;2024-02-23T05:33:12;98066.28;;;10.07;100.00
63739;BME280;68816;45.558;10.070;2024-02-23T05:35:38;98059.34;;;10.19;100.00
63739;BME280;68816;45.558;10.070;2024-02-23T05:38:03;98072.31;;;10.14;100.00
63739;BME280;68816;45.558;10.070;2024-02-23T05:40:31;98075.63;;;10.21;100.00
63739;BME280;68816;45.558;10.070;2024-02-23T05:42:58;98088.34;;;10.22;100.00
63739;BME280;68816;45.558;10.070;2024-02-23T05:45:23;98087.50;;;10.21;100.00
63739;BME280;68816;45.558;10.070;2024-02-23T05:47:49;98071.22;;;10.15;100.00
63739;BME280;68816;45.558;10.070;2024-02-23T05:50:14;98070.94;;;10.21;100.00
63739;BME280;68816;45.558;10.070;2024-02-23T05:52:41;98075.91;;;10.24;100.00
63739;BME280;68816;45.558;10.070;2024-02-23T05:55:07;98061.53;;;10.27;100.00
63739;BME280;68816;45.558;10.070;2024-02-23T05:57:33;98058.81;;;10.17;100.00
63739;BME280;68816;45.558;10.070;2024-02-23T05:59:59;98064.28;;;10.27;100.00
63739;BME280;68816;45.558;10.070;2024-02-23T06:02:24;98056.56;;;10.19;100.00
63739;BME280;68816;45.558;10.070;2024-02-23T06:04:50;98051.84;;;10.25;100.00
63739;BME280;68816;45.558;10.070;2024-02-23T06:07:16;98039.72;;;10.26;100.00
63739;BME280;68816;45.558;10.070;2024-02-23T06:09:42;98051.59;;;10.26;100.00
63739;BME280;68816;45.558;10.070;2024-02-23T06:12:08;98045.47;;;10.35;100.00
63739;BME280;68816;45.558;10.070;2024-02-23T06:14:34;98041.34;;;10.32;100.00
63739;BME280;68816;45.558;10.070;2024-02-23T06:16:59;98038.25;;;10.39;100.00
63739;BME280;68816;45.558;10.070;2024-02-23T06:19:24;98035.53;;;10.34;100.00
63739;BME280;68816;45.558;10.070;2024-02-23T06:21:50;98037.44;;;10.38;100.00
63739;BME280;68816;45.558;10.070;2024-02-23T06:24:16;98028.03;;;10.39;100.00
63739;BME280;68816;45.558;10.070;2024-02-23T06:26:42;98028.09;;;10.29;100.00
63739;BME280;68816;45.558;10.070;2024-02-23T06:29:08;98025.59;;;10.33;100.00
63739;BME280;68816;45.558;10.070;2024-02-23T06:31:38;98030.84;;;10.34;100.00
63739;BME280;68816;45.558;10.070;2024-02-23T06:34:07;98027.53;;;10.32;100.00
63739;BME280;68816;45.558;10.070;2024-02-23T06:36:33;98022.56;;;10.34;100.00
63739;BME280;68816;45.558;10.070;2024-02-23T06:38:58;98021.44;;;10.35;100.00
63739;BME280;68816;45.558;10.070;2024-02-23T06:41:24;98005.13;;;10.39;100.00
63739;BME280;68816;45.558;10.070;2024-02-23T06:43:49;98011.75;;;10.38;100.00
63739;BME280;68816;45.558;10.070;2024-02-23T06:46:18;98008.97;;;10.38;100.00
63739;BME280;68816;45.558;10.070;2024-02-23T06:48:45;97998.25;;;10.36;100.00
63739;BME280;68816;45.558;10.070;2024-02-23T06:51:12;98001.84;;;10.37;100.00
63739;BME280;68816;45.558;10.070;2024-02-23T06:53:37;98005.44;;;10.32;100.00
63739;BME280;68816;45.558;10.070;2024-02-23T06:56:03;98003.50;;;10.33;100.00
63739;BME280;68816;45.558;10.070;2024-02-23T06:58:29;97998.56;;;10.29;100.00
63739;BME280;68816;45.558;10.070;2024-02-23T07:00:54;97999.91;;;10.32;100.00
63739;BME280;68816;45.558;10.070;2024-02-23T07:03:20;97994.94;;;10.34;100.00
63739;BME280;68816;45.558;10.070;2024-02-23T07:05:45;97992.97;;;10.40;100.00
63739;BME280;68816;45.558;10.070;2024-02-23T07:08:12;98000.19;;;10.36;100.00
63739;BME280;68816;45.558;10.070;2024-02-23T07:10:38;98003.53;;;10.27;100.00
63739;BME280;68816;45.558;10.070;2024-02-23T07:13:03;98014.56;;;10.27;100.00
63739;BME280;68816;45.558;10.070;2024-02-23T07:15:29;98012.91;;;10.26;100.00
63739;BME280;68816;45.558;10.070;2024-02-23T07:17:55;98016.19;;;10.34;100.00
63739;BME280;68816;45.558;10.070;2024-02-23T07:20:21;98013.47;;;10.28;100.00
63739;BME280;68816;45.558;10.070;2024-02-23T07:22:47;98020.69;;;10.24;100.00
63739;BME280;68816;45.558;10.070;2024-02-23T07:25:19;98025.88;;;10.31;100.00
63739;BME280;68816;45.558;10.070;2024-02-23T07:27:48;98028.34;;;10.33;100.00
63739;BME280;68816;45.558;10.070;2024-02-23T07:30:17;98030.56;;;10.36;100.00
63739;BME280;68816;45.558;10.070;2024-02-23T07:32:43;98041.59;;;10.41;100.00
63739;BME280;68816;45.558;10.070;2024-02-23T07:35:09;98036.56;;;10.43;100.00
63739;BME280;68816;45.558;10.070;2024-02-23T07:37:36;98036.09;;;10.36;100.00
63739;BME280;68816;45.558;10.070;2024-02-23T07:40:02;98047.38;;;10.39;100.00
63739;BME280;68816;45.558;10.070;2024-02-23T07:42:29;98034.16;;;10.36;100.00
63739;BME280;68816;45.558;10.070;2024-02-23T07:44:55;98036.91;;;10.36;100.00
63739;BME280;68816;45.558;10.070;2024-02-23T07:47:21;98032.47;;;10.40;100.00
63739;BME280;68816;45.558;10.070;2024-02-23T07:49:47;98042.13;;;10.38;100.00
63739;BME280;68816;45.558;10.070;2024-02-23T07:52:12;98034.41;;;10.40;100.00
63739;BME280;68816;45.558;10.070;2024-02-23T07:54:38;98037.72;;;10.42;100.00
63739;BME280;68816;45.558;10.070;2024-02-23T07:57:03;98041.81;;;10.44;100.00
63739;BME280;68816;45.558;10.070;2024-02-23T07:59:30;98038.25;;;10.39;100.00
63739;BME280;68816;45.558;10.070;2024-02-23T08:01:56;98033.81;;;10.43;100.00
63739;BME280;68816;45.558;10.070;2024-02-23T08:04:21;98044.88;;;10.48;100.00
63739;BME280;68816;45.558;10.070;2024-02-23T08:06:47;98036.81;;;10.51;100.00
63739;BME280;68816;45.558;10.070;2024-02-23T08:09:13;98047.00;;;10.56;100.00
63739;BME280;68816;45.558;10.070;2024-02-23T08:11:39;98049.50;;;10.57;100.00
63739;BME280;68816;45.558;10.070;2024-02-23T08:14:04;98045.88;;;10.62;100.00
63739;BME280;68816;45.558;10.070;2024-02-23T08:16:30;98051.22;;;10.48;100.00
63739;BME280;68816;45.558;10.070;2024-02-23T08:18:55;98054.53;;;10.45;100.00
63739;BME280;68816;45.558;10.070;2024-02-23T08:21:21;98054.22;;;10.52;100.00
63739;BME280;68816;45.558;10.070;2024-02-23T08:23:46;98047.09;;;10.41;100.00
63739;BME280;68816;45.558;10.070;2024-02-23T08:26:12;98043.72;;;10.54;100.00
63739;BME280;68816;45.558;10.070;2024-02-23T08:28:37;98052.19;;;10.67;100.00
63739;BME280;68816;45.558;10.070;2024-02-23T08:31:03;98048.00;;;10.75;100.00
63739;BME280;68816;45.558;10.070;2024-02-23T08:33:28;98048.56;;;10.77;100.00
63739;BME280;68816;45.558;10.070;2024-02-23T08:35:54;98046.22;;;10.94;100.00
63739;BME280;68816;45.558;10.070;2024-02-23T08:38:20;98050.09;;;10.93;100.00
63739;BME280;68816;45.558;10.070;2024-02-23T08:40:45;98048.41;;;10.97;100.00
63739;BME280;68816;45.558;10.070;2024-02-23T08:43:11;98050.63;;;11.00;100.00
63739;BME280;68816;45.558;10.070;2024-02-23T08:45:36;98042.28;;;11.05;100.00
63739;BME280;68816;45.558;10.070;2024-02-23T08:48:02;98039.25;;;11.02;100.00
63739;BME280;68816;45.558;10.070;2024-02-23T08:50:29;98040.34;;;11.06;100.00
63739;BME280;68816;45.558;10.070;2024-02-23T08:52:54;98047.22;;;11.08;100.00
63739;BME280;68816;45.558;10.070;2024-02-23T08:55:20;98042.75;;;11.12;100.00
63739;BME280;68816;45.558;10.070;2024-02-23T08:57:46;98046.97;;;11.05;100.00
63739;BME280;68816;45.558;10.070;2024-02-23T09:00:13;98063.81;;;11.08;100.00
63739;BME280;68816;45.558;10.070;2024-02-23T09:02:39;98062.09;;;11.12;100.00
63739;BME280;68816;45.558;10.070;2024-02-23T09:05:07;98070.41;;;11.12;100.00
63739;BME280;68816;45.558;10.070;2024-02-23T09:07:33;98074.00;;;11.13;100.00
63739;BME280;68816;45.558;10.070;2024-02-23T09:09:58;98073.81;;;11.04;100.00
63739;BME280;68816;45.558;10.070;2024-02-23T09:12:24;98068.56;;;11.03;100.00
63739;BME280;68816;45.558;10.070;2024-02-23T09:14:49;98071.88;;;11.05;100.00
63739;BME280;68816;45.558;10.070;2024-02-23T09:17:15;98076.84;;;11.03;100.00
63739;BME280;68816;45.558;10.070;2024-02-23T09:19:40;98080.94;;;11.10;100.00
63739;BME280;68816;45.558;10.070;2024-02-23T09:22:06;98085.94;;;11.08;100.00
63739;BME280;68816;45.558;10.070;2024-02-23T09:24:31;98093.44;;;11.03;100.00
63739;BME280;68816;45.558;10.070;2024-02-23T09:26:57;98095.94;;;11.04;100.00
63739;BME280;68816;45.558;10.070;2024-02-23T09:29:22;98095.09;;;11.04;100.00
63739;BME280;68816;45.558;10.070;2024-02-23T09:31:48;98099.28;;;10.96;100.00
63739;BME280;68816;45.558;10.070;2024-02-23T09:34:13;98099.09;;;10.88;100.00
63739;BME280;68816;45.558;10.070;2024-02-23T09:36:39;98108.28;;;10.73;100.00
63739;BME280;68816;45.558;10.070;2024-02-23T09:39:04;98105.75;;;10.22;100.00
63739;BME280;68816;45.558;10.070;2024-02-23T09:41:30;98106.38;;;9.79;100.00
63739;BME280;68816;45.558;10.070;2024-02-23T09:43:59;98106.69;;;9.57;100.00
63739;BME280;68816;45.558;10.070;2024-02-23T09:46:26;98114.41;;;9.70;100.00
63739;BME280;68816;45.558;10.070;2024-02-23T09:48:52;98118.00;;;9.61;100.00
63739;BME280;68816;45.558;10.070;2024-02-23T09:51:18;98115.25;;;9.61;100.00
63739;BME280;68816;45.558;10.070;2024-02-23T09:53:47;98117.16;;;9.55;100.00
63739;BME280;68816;45.558;10.070;2024-02-23T09:56:15;98124.63;;;9.39;100.00
63739;BME280;68816;45.558;10.070;2024-02-23T09:58:43;98129.31;;;9.34;100.00
63739;BME280;68816;45.558;10.070;2024-02-23T10:01:10;98128.47;;;9.23;100.00
63739;BME280;68816;45.558;10.070;2024-02-23T10:03:37;98111.66;;;9.45;100.00
63739;BME280;68816;45.558;10.070;2024-02-23T10:06:04;98114.16;;;9.41;100.00
63739;BME280;68816;45.558;10.070;2024-02-23T10:08:30;98113.84;;;9.33;100.00
63739;BME280;68816;45.558;10.070;2024-02-23T10:10:56;98117.72;;;9.62;100.00
63739;BME280;68816;45.558;10.070;2024-02-23T10:13:23;98121.84;;;9.65;100.00
63739;BME280;68816;45.558;10.070;2024-02-23T10:15:52;98120.16;;;9.79;100.00
63739;BME280;68816;45.558;10.070;2024-02-23T10:18:19;98119.06;;;9.85;100.00
63739;BME280;68816;45.558;10.070;2024-02-23T10:20:46;98129.56;;;9.78;100.00
63739;BME280;68816;45.558;10.070;2024-02-23T10:23:11;98131.78;;;9.71;100.00
63739;BME280;68816;45.558;10.070;2024-02-23T10:25:37;98124.06;;;9.63;100.00
63739;BME280;68816;45.558;10.070;2024-02-23T10:28:06;98123.53;;;9.66;100.00
63739;BME280;68816;45.558;10.070;2024-02-23T10:30:32;98121.59;;;9.71;100.00
63739;BME280;68816;45.558;10.070;2024-02-23T10:32:58;98126.28;;;9.51;100.00
63739;BME280;68816;45.558;10.070;2024-02-23T10:35:24;98140.06;;;9.35;100.00
63739;BME280;68816;45.558;10.070;2024-02-23T10:37:53;98124.91;;;9.43;100.00
63739;BME280;68816;45.558;10.070;2024-02-23T10:40:21;98117.19;;;9.35;100.00
63739;BME280;68816;45.558;10.070;2024-02-23T10:42:55;98108.06;;;9.44;100.00
63739;BME280;68816;45.558;10.070;2024-02-23T10:45:21;98116.88;;;9.57;100.00
63739;BME280;68816;45.558;10.070;2024-02-23T10:47:48;98108.59;;;9.77;100.00
63739;BME280;68816;45.558;10.070;2024-02-23T10:50:14;98111.38;;;9.72;100.00
63739;BME280;68816;45.558;10.070;2024-02-23T10:52:43;98109.13;;;9.74;100.00
63739;BME280;68816;45.558;10.070;2024-02-23T10:55:09;98111.91;;;9.69;100.00
63739;BME280;68816;45.558;10.070;2024-02-23T10:57:35;98107.75;;;9.81;100.00
63739;BME280;68816;45.558;10.070;2024-02-23T11:00:02;98103.59;;;9.89;100.00
63739;BME280;68816;45.558;10.070;2024-02-23T11:02:38;98099.44;;;9.97;100.00
63739;BME280;68816;45.558;10.070;2024-02-23T11:05:06;98096.66;;;10.02;100.00
63739;BME280;68816;45.558;10.070;2024-02-23T11:07:38;98104.94;;;10.12;100.00
63739;BME280;68816;45.558;10.070;2024-02-23T11:10:04;98106.88;;;10.16;100.00
63739;BME280;68816;45.558;10.070;2024-02-23T11:12:30;98106.31;;;10.24;100.00
63739;BME280;68816;45.558;10.070;2024-02-23T11:14:59;98097.94;;;10.40;100.00
63739;BME280;68816;45.558;10.070;2024-02-23T11:17:30;98097.97;;;10.35;100.00
63739;BME280;68816;45.558;10.070;2024-02-23T11:19:56;98103.19;;;10.41;100.00
63739;BME280;68816;45.558;10.070;2024-02-23T11:22:31;98105.16;;;10.36;100.00
63739;BME280;68816;45.558;10.070;2024-02-23T11:25:03;98111.75;;;10.40;100.00
63739;BME280;68816;45.558;10.070;2024-02-23T11:27:33;98109.56;;;10.42;100.00
63739;BME280;68816;45.558;10.070;2024-02-23T11:30:06;98109.00;;;10.40;100.00
63739;BME280;68816;45.558;10.070;2024-02-23T11:32:47;98113.44;;;10.36;100.00
63739;BME280;68816;45.558;10.070;2024-02-23T11:35:16;98103.00;;;10.12;100.00
63739;BME280;68816;45.558;10.070;2024-02-23T11:40:15;98077.56;;;10.15;100.00
63739;BME280;68816;45.558;10.070;2024-02-23T11:42:42;98072.03;;;10.15;100.00
63739;BME280;68816;45.558;10.070;2024-02-23T11:45:09;98047.44;;;10.29;100.00
63739;BME280;68816;45.558;10.070;2024-02-23T11:47:36;98057.09;;;10.32;100.00
63739;BME280;68816;45.558;10.070;2024-02-23T11:50:02;98050.47;;;10.27;100.00
63739;BME280;68816;45.558;10.070;2024-02-23T11:52:28;98056.56;;;10.19;100.00
63739;BME280;68816;45.558;10.070;2024-02-23T11:54:55;98072.59;;;10.22;100.00
63739;BME280;68816;45.558;10.070;2024-02-23T11:57:21;98070.91;;;10.32;100.00
63739;BME280;68816;45.558;10.070;2024-02-23T11:59:47;98079.22;;;10.26;100.00
63739;BME280;68816;45.558;10.070;2024-02-23T12:02:12;98075.91;;;10.24;100.00
63739;BME280;68816;45.558;10.070;2024-02-23T12:04:38;98078.13;;;10.12;100.00
63739;BME280;68816;45.558;10.070;2024-02-23T12:07:04;98074.00;;;10.05;100.00
63739;BME280;68816;45.558;10.070;2024-02-23T12:09:29;98078.16;;;10.17;100.00
63739;BME280;68816;45.558;10.070;2024-02-23T12:11:55;98083.97;;;10.06;100.00
63739;BME280;68816;45.558;10.070;2024-02-23T12:14:21;98088.06;;;10.13;100.00
63739;BME280;68816;45.558;10.070;2024-02-23T12:16:46;98077.84;;;10.09;100.00
63739;BME280;68816;45.558;10.070;2024-02-23T12:19:12;98079.78;;;10.08;100.00
63739;BME280;68816;45.558;10.070;2024-02-23T12:21:37;98072.63;;;10.12;100.00
63739;BME280;68816;45.558;10.070;2024-02-23T12:24:06;98072.88;;;10.16;100.00
63739;BME280;68816;45.558;10.070;2024-02-23T12:26:33;98069.28;;;10.20;100.00
63739;BME280;68816;45.558;10.070;2024-02-23T12:29:02;98079.50;;;10.20;100.00
63739;BME280;68816;45.558;10.070;2024-02-23T12:31:28;98080.38;;;10.00;100.00
63739;BME280;68816;45.558;10.070;2024-02-23T12:33:56;98085.94;;;9.80;100.00
63739;BME280;68816;45.558;10.070;2024-02-23T12:36:22;98091.22;;;9.76;100.00